createdAt,value
2019-04-28T00:01:57.322Z,43.83
2019-04-28T00:04:25.529Z,41.93
2019-04-28T00:06:54.033Z,40.67
2019-04-28T00:09:23.165Z,42.13
2019-04-28T00:11:53.364Z,42.57
2019-04-28T00:14:22.123Z,47.43
2019-04-28T00:16:51.156Z,45.83
2019-04-28T00:19:20.948Z,41.57
2019-04-28T00:21:57.091Z,40.10
2019-04-28T00:24:43.186Z,50.90
2019-04-28T00:27:12.044Z,47.73
2019-04-28T00:29:45.677Z,54.80
2019-04-28T00:32:11.212Z,53.27
2019-04-28T00:34:41.272Z,47.63
2019-04-28T00:37:17.412Z,49.90
2019-04-28T00:39:45.608Z,54.63
2019-04-28T00:42:13.809Z,55.63
2019-04-28T00:44:43.401Z,53.13
2019-04-28T00:47:11.789Z,50.93
2019-04-28T00:49:48.985Z,57.40
2019-04-28T00:52:17.819Z,58.17
2019-04-28T00:54:46.554Z,54.87
2019-04-28T00:57:15.039Z,56.93
2019-04-28T00:59:54.018Z,59.17
2019-04-28T01:02:15.078Z,53.97
2019-04-28T01:04:43.262Z,53.97
2019-04-28T01:07:11.581Z,58.23
2019-04-28T01:09:41.497Z,58.30
2019-04-28T01:12:11.222Z,50.60
2019-04-28T01:14:40.979Z,69.20
2019-04-28T01:17:14.850Z,68.70
2019-04-28T01:19:49.629Z,57.87
2019-04-28T01:22:20.179Z,62.40
2019-04-28T01:24:49.725Z,57.43
2019-04-28T01:27:25.650Z,59.53
2019-04-28T01:30:05.361Z,50.20
2019-04-28T01:32:34.510Z,70.20
2019-04-28T01:35:02.778Z,57.80
2019-04-28T01:37:31.007Z,54.77
2019-04-28T01:39:59.761Z,56.87
2019-04-28T01:42:30.116Z,61.47
2019-04-28T01:44:58.157Z,61.90
2019-04-28T01:47:26.463Z,64.17
2019-04-28T01:49:54.660Z,44.23
2019-04-28T01:52:22.862Z,50.87
2019-04-28T01:54:51.057Z,53.50
2019-04-28T01:57:21.364Z,58.67
2019-04-28T01:59:50.159Z,55.30
2019-04-28T02:02:19.922Z,52.67
2019-04-28T02:04:49.892Z,54.63
2019-04-28T02:07:18.318Z,54.73
2019-04-28T02:09:46.516Z,51.67
2019-04-28T02:12:14.714Z,50.53
2019-04-28T02:14:42.912Z,61.93
2019-04-28T02:17:11.115Z,49.70
2019-04-28T02:19:41.065Z,53.87
2019-04-28T02:22:25.735Z,48.33
2019-04-28T02:24:55.007Z,55.83
2019-04-28T02:27:23.620Z,43.83
2019-04-28T02:29:51.817Z,49.70
2019-04-28T02:32:21.281Z,56.77
2019-04-28T02:34:50.812Z,53.83
2019-04-28T02:37:20.563Z,49.73
2019-04-28T02:39:50.560Z,38.33
2019-04-28T02:42:20.899Z,45.50
2019-04-28T02:44:50.405Z,35.87
2019-04-28T02:47:21.608Z,39.70
2019-04-28T02:50:00.845Z,39.07
2019-04-28T02:52:47.781Z,43.40
2019-04-28T02:55:15.953Z,41.07
2019-04-28T02:57:44.165Z,45.00
2019-04-28T03:00:12.366Z,30.90
2019-04-28T03:02:41.602Z,46.97
2019-04-28T03:05:11.610Z,41.27
2019-04-28T03:07:41.043Z,46.37
2019-04-28T03:10:11.108Z,43.63
2019-04-28T03:12:41.408Z,46.53
2019-04-28T03:15:10.406Z,30.67
2019-04-28T03:17:40.738Z,31.73
2019-04-28T03:20:10.960Z,40.67
2019-04-28T03:22:40.864Z,39.37
2019-04-28T03:25:10.929Z,44.27
2019-04-28T03:27:57.384Z,41.37
2019-04-28T03:30:35.892Z,33.73
2019-04-28T03:33:12.000Z,28.37
2019-04-28T03:35:35.665Z,46.23
2019-04-28T03:38:03.868Z,36.60
2019-04-28T03:40:33.803Z,38.20
2019-04-28T03:43:03.326Z,32.70
2019-04-28T03:45:42.177Z,35.03
2019-04-28T03:48:11.480Z,36.33
2019-04-28T03:50:41.431Z,29.60
2019-04-28T03:53:11.081Z,32.67
2019-04-28T03:55:41.683Z,41.53
2019-04-28T03:58:10.447Z,33.67
2019-04-28T04:00:40.814Z,36.73
2019-04-28T04:03:10.965Z,34.63
2019-04-28T04:05:40.624Z,30.90
2019-04-28T04:08:10.905Z,24.53
2019-04-28T04:10:43.760Z,32.80
2019-04-28T04:13:25.568Z,30.67
2019-04-28T04:15:55.406Z,37.40
2019-04-28T04:18:25.263Z,33.43
2019-04-28T04:20:53.783Z,27.70
2019-04-28T04:23:23.356Z,40.20
2019-04-28T04:25:51.770Z,42.13
2019-04-28T04:28:20.685Z,34.97
2019-04-28T04:30:50.755Z,31.03
2019-04-28T04:33:20.809Z,44.87
2019-04-28T04:35:51.727Z,38.20
2019-04-28T04:38:21.762Z,38.03
2019-04-28T04:40:51.276Z,37.37
2019-04-28T04:43:23.013Z,32.13
2019-04-28T04:45:51.000Z,35.97
2019-04-28T04:48:21.528Z,34.97
2019-04-28T04:50:51.027Z,39.17
2019-04-28T04:53:20.786Z,25.27
2019-04-28T04:55:50.535Z,31.63
2019-04-28T04:58:21.219Z,25.23
2019-04-28T05:00:53.161Z,34.73
2019-04-28T05:03:23.326Z,34.37
2019-04-28T05:05:51.532Z,24.83
2019-04-28T05:08:20.278Z,30.50
2019-04-28T05:10:50.427Z,28.13
2019-04-28T05:13:20.083Z,29.80
2019-04-28T05:15:48.426Z,32.13
2019-04-28T05:18:16.616Z,36.50
2019-04-28T05:20:44.819Z,26.77
2019-04-28T05:23:14.640Z,28.37
2019-04-28T05:25:44.016Z,35.20
2019-04-28T05:28:12.541Z,38.87
2019-04-28T05:30:42.972Z,32.60
2019-04-28T05:33:12.314Z,42.20
2019-04-28T05:35:40.513Z,37.47
2019-04-28T05:38:09.972Z,29.97
2019-04-28T05:40:39.878Z,33.67
2019-04-28T05:43:08.447Z,36.33
2019-04-28T05:45:36.646Z,37.63
2019-04-28T05:48:04.843Z,36.10
2019-04-28T05:50:34.687Z,31.07
2019-04-28T05:53:04.831Z,28.63
2019-04-28T05:55:34.688Z,33.10
2019-04-28T05:58:10.502Z,31.23
2019-04-28T06:00:52.592Z,36.03
2019-04-28T06:03:22.436Z,32.13
2019-04-28T06:05:51.001Z,29.07
2019-04-28T06:08:27.147Z,28.37
2019-04-28T06:10:55.355Z,26.47
2019-04-28T06:13:23.904Z,27.47
2019-04-28T06:15:52.118Z,24.57
2019-04-28T06:18:20.627Z,28.37
2019-04-28T06:20:49.823Z,30.60
2019-04-28T06:23:18.033Z,19.07
2019-04-28T06:25:46.253Z,29.10
2019-04-28T06:28:14.460Z,27.57
2019-04-28T06:30:42.681Z,27.10
2019-04-28T06:33:10.883Z,28.20
2019-04-28T06:35:39.414Z,31.97
2019-04-28T06:38:07.912Z,25.60
2019-04-28T06:40:36.113Z,31.47
2019-04-28T06:43:04.320Z,25.67
2019-04-28T06:45:32.828Z,24.93
2019-04-28T06:48:01.026Z,27.27
2019-04-28T06:50:29.235Z,37.80
2019-04-28T06:52:57.435Z,33.87
2019-04-28T06:55:25.929Z,36.33
2019-04-28T06:57:54.126Z,32.00
2019-04-28T07:00:22.340Z,21.60
2019-04-28T07:02:50.537Z,30.00
2019-04-28T07:05:18.750Z,39.13
2019-04-28T07:07:46.995Z,26.23
2019-04-28T07:10:15.160Z,37.47
2019-04-28T07:12:43.373Z,33.97
2019-04-28T07:15:11.584Z,27.07
2019-04-28T07:17:39.778Z,34.97
2019-04-28T07:20:09.637Z,33.53
2019-04-28T07:22:37.837Z,25.77
2019-04-28T07:25:06.305Z,33.67
2019-04-28T07:27:34.508Z,33.47
2019-04-28T07:30:03.423Z,19.97
2019-04-28T07:32:31.637Z,31.87
2019-04-28T07:35:00.179Z,34.57
2019-04-28T07:37:28.385Z,41.43
2019-04-28T07:39:56.967Z,28.67
2019-04-28T07:42:25.119Z,39.17
2019-04-28T07:44:54.955Z,31.33
2019-04-28T07:47:23.165Z,27.20
2019-04-28T07:49:51.370Z,44.63
2019-04-28T07:52:21.221Z,35.40
2019-04-28T07:54:49.795Z,31.03
2019-04-28T07:57:17.987Z,32.40
2019-04-28T07:59:46.536Z,32.30
2019-04-28T08:02:14.740Z,33.63
2019-04-28T08:04:42.956Z,34.80
2019-04-28T08:07:11.170Z,25.27
2019-04-28T08:09:39.384Z,28.90
2019-04-28T08:12:07.582Z,24.70
2019-04-28T08:14:35.790Z,30.90
2019-04-28T08:17:03.999Z,37.37
2019-04-28T08:19:32.210Z,31.93
2019-04-28T08:22:00.408Z,34.57
2019-04-28T08:24:28.859Z,48.67
2019-04-28T08:26:57.354Z,41.73
2019-04-28T08:29:25.555Z,33.50
2019-04-28T08:31:55.409Z,43.77
2019-04-28T08:34:23.620Z,46.93
2019-04-28T08:36:52.106Z,40.60
2019-04-28T08:39:23.064Z,32.80
2019-04-28T08:41:50.246Z,41.87
2019-04-28T08:44:18.776Z,40.47
2019-04-28T08:46:47.363Z,37.03
2019-04-28T08:49:15.558Z,30.40
2019-04-28T08:51:43.764Z,30.60
2019-04-28T08:54:12.001Z,27.90
2019-04-28T08:56:40.199Z,32.43
2019-04-28T08:59:08.425Z,28.70
2019-04-28T09:01:36.638Z,31.73
2019-04-28T09:04:15.145Z,23.17
2019-04-28T09:06:35.115Z,19.90
2019-04-28T09:09:04.960Z,23.87
2019-04-28T09:11:37.383Z,25.63
2019-04-28T09:14:05.558Z,21.93
2019-04-28T09:16:34.054Z,26.30
2019-04-28T09:19:02.255Z,27.20
2019-04-28T09:21:30.469Z,24.93
2019-04-28T09:23:58.674Z,20.53
2019-04-28T09:26:26.905Z,20.90
2019-04-28T09:28:55.122Z,26.00
2019-04-28T09:31:23.336Z,19.93
2019-04-28T09:33:51.875Z,25.47
2019-04-28T09:36:20.106Z,23.53
2019-04-28T09:38:48.377Z,24.70
2019-04-28T09:41:16.901Z,20.40
2019-04-28T09:43:52.424Z,15.67
2019-04-28T09:46:22.343Z,17.07
2019-04-28T09:48:50.663Z,23.03
2019-04-28T09:51:18.866Z,13.80
2019-04-28T09:53:47.087Z,20.77
2019-04-28T09:56:15.282Z,18.00
2019-04-28T09:58:43.944Z,18.60
2019-04-28T10:01:12.271Z,23.47
2019-04-28T10:03:40.487Z,18.13
2019-04-28T10:06:08.800Z,19.47
2019-04-28T10:08:37.017Z,21.03
2019-04-28T10:11:05.226Z,16.83
2019-04-28T10:13:33.806Z,16.57
2019-04-28T10:16:02.330Z,24.30
2019-04-28T10:18:30.625Z,24.77
2019-04-28T10:20:59.149Z,21.50
2019-04-28T10:23:27.731Z,19.13
2019-04-28T10:25:56.211Z,20.20
2019-04-28T10:28:24.691Z,18.87
2019-04-28T10:30:52.898Z,23.57
2019-04-28T10:33:21.448Z,17.90
2019-04-28T10:35:49.664Z,20.57
2019-04-28T10:38:18.205Z,19.53
2019-04-28T10:40:53.742Z,17.87
2019-04-28T10:43:21.973Z,16.73
2019-04-28T10:45:51.043Z,14.20
2019-04-28T10:48:19.609Z,12.37
2019-04-28T10:50:47.886Z,20.97
2019-04-28T10:53:16.108Z,18.30
2019-04-28T10:55:44.364Z,26.80
2019-04-28T10:58:12.582Z,24.27
2019-04-28T11:00:41.705Z,24.47
2019-04-28T11:03:10.287Z,26.90
2019-04-28T11:05:40.120Z,24.40
2019-04-28T11:08:10.040Z,29.30
2019-04-28T11:10:38.244Z,35.80
2019-04-28T11:13:06.526Z,35.67
2019-04-28T11:15:36.378Z,33.70
2019-04-28T11:18:05.638Z,38.90
2019-04-28T11:20:33.855Z,46.90
2019-04-28T11:23:02.068Z,32.23
2019-04-28T11:25:30.694Z,32.23
2019-04-28T11:27:58.920Z,39.03
2019-04-28T11:30:28.591Z,36.20
2019-04-28T11:33:01.359Z,39.60
2019-04-28T11:35:31.811Z,33.13
2019-04-28T11:38:00.094Z,27.73
2019-04-28T11:40:28.430Z,23.27
2019-04-28T11:42:56.940Z,31.20
2019-04-28T11:45:26.326Z,26.53
2019-04-28T11:47:54.809Z,24.20
2019-04-28T11:50:23.024Z,25.77
2019-04-28T11:52:51.255Z,23.47
2019-04-28T11:55:19.464Z,22.97
2019-04-28T11:57:47.659Z,16.87
2019-04-28T12:00:29.927Z,15.47
2019-04-28T12:02:58.134Z,19.23
2019-04-28T12:05:34.407Z,21.13
2019-04-28T12:08:44.760Z,29.67
2019-04-28T12:11:14.941Z,18.60
2019-04-28T12:14:01.194Z,22.90
2019-04-28T12:16:47.541Z,18.13
2019-04-28T12:19:17.391Z,13.10
2019-04-28T12:21:45.930Z,15.20
2019-04-28T12:24:14.211Z,10.70
2019-04-28T12:26:42.415Z,18.67
2019-04-28T12:29:10.969Z,12.70
2019-04-28T12:31:39.442Z,12.80
2019-04-28T12:34:08.024Z,11.60
2019-04-28T12:36:36.222Z,13.87
2019-04-28T12:39:07.188Z,15.50
2019-04-28T12:41:35.388Z,12.73
2019-04-28T12:44:03.605Z,9.83
2019-04-28T12:46:32.067Z,13.17
2019-04-28T12:49:02.207Z,10.37
2019-04-28T12:51:30.775Z,11.03
2019-04-28T12:54:00.627Z,10.37
2019-04-28T12:56:28.835Z,13.90
2019-04-28T12:58:58.673Z,10.63
2019-04-28T13:01:43.809Z,14.60
2019-04-28T13:04:26.143Z,17.80
2019-04-28T13:07:04.968Z,15.60
2019-04-28T13:09:33.552Z,15.33
2019-04-28T13:12:01.759Z,14.90
2019-04-28T13:14:30.068Z,13.33
2019-04-28T13:16:58.802Z,13.53
2019-04-28T13:19:27.384Z,10.40
2019-04-28T13:21:55.578Z,12.77
2019-04-28T13:24:23.790Z,13.37
2019-04-28T13:26:52.423Z,13.93
2019-04-28T13:29:20.888Z,13.80
2019-04-28T13:31:49.092Z,13.00
2019-04-28T13:34:19.305Z,10.63
2019-04-28T13:36:47.484Z,12.73
2019-04-28T13:39:17.324Z,10.13
2019-04-28T13:41:45.532Z,11.60
2019-04-28T13:44:15.385Z,21.27
2019-04-28T13:46:43.594Z,16.30
2019-04-28T13:49:13.667Z,12.83
2019-04-28T13:51:44.893Z,10.50
2019-04-28T13:54:14.715Z,10.33
2019-04-28T13:56:42.974Z,12.57
2019-04-28T13:59:12.767Z,12.00
2019-04-28T14:01:54.769Z,12.73
2019-04-28T14:04:30.694Z,11.50
2019-04-28T14:06:59.088Z,11.20
2019-04-28T14:09:25.077Z,10.93
2019-04-28T14:11:50.791Z,10.23
2019-04-28T14:14:16.552Z,11.67
2019-04-28T14:16:42.366Z,12.00
2019-04-28T14:19:08.407Z,9.17
2019-04-28T14:21:34.358Z,9.37
2019-04-28T14:24:00.079Z,11.03
2019-04-28T14:26:25.846Z,9.47
2019-04-28T14:28:51.620Z,11.43
2019-04-28T14:31:17.727Z,9.33
2019-04-28T14:33:43.491Z,8.83
2019-04-28T14:36:09.374Z,9.47
2019-04-28T14:38:35.167Z,12.00
2019-04-28T14:41:00.977Z,9.53
2019-04-28T14:43:27.012Z,7.37
2019-04-28T14:45:52.844Z,7.17
2019-04-28T14:48:18.677Z,9.47
2019-04-28T14:50:44.389Z,10.90
2019-04-28T14:53:10.304Z,10.10
2019-04-28T14:55:36.432Z,9.40
2019-04-28T14:58:02.197Z,9.80
2019-04-28T15:00:30.195Z,9.00
2019-04-28T15:03:00.651Z,8.33
2019-04-28T15:05:28.364Z,10.77
2019-04-28T15:08:05.049Z,9.40
2019-04-28T15:10:32.776Z,8.90
2019-04-28T15:12:58.981Z,9.43
2019-04-28T15:15:24.964Z,12.73
2019-04-28T15:17:50.884Z,11.30
2019-04-28T15:20:16.669Z,16.10
2019-04-28T15:22:42.432Z,24.60
2019-04-28T15:25:08.189Z,20.10
2019-04-28T15:27:33.981Z,26.50
2019-04-28T15:30:11.040Z,34.00
2019-04-28T15:32:37.725Z,44.13
2019-04-28T15:35:04.495Z,74.77
2019-04-28T15:37:30.269Z,107.43
2019-04-28T15:39:56.030Z,68.30
2019-04-28T15:42:22.077Z,60.93
2019-04-28T15:44:47.853Z,56.47
2019-04-28T15:47:13.917Z,65.47
2019-04-28T15:49:39.675Z,57.57
2019-04-28T15:52:05.436Z,60.43
2019-04-28T15:54:31.188Z,49.47
2019-04-28T15:56:56.957Z,57.40
2019-04-28T15:59:23.006Z,57.60
2019-04-28T16:01:48.782Z,56.37
2019-04-28T16:04:18.009Z,55.83
2019-04-28T16:06:42.542Z,38.00
2019-04-28T16:09:10.483Z,49.90
2019-04-28T16:11:36.604Z,49.30
2019-04-28T16:14:02.365Z,40.57
2019-04-28T16:16:28.189Z,46.60
2019-04-28T16:18:54.267Z,37.83
2019-04-28T16:21:20.034Z,33.27
2019-04-28T16:23:46.061Z,34.83
2019-04-28T16:26:11.865Z,38.73
2019-04-28T16:28:37.625Z,32.87
2019-04-28T16:31:03.881Z,31.43
2019-04-28T16:33:29.992Z,36.43
2019-04-28T16:35:55.786Z,29.10
2019-04-28T16:38:23.639Z,26.30
2019-04-28T16:40:49.607Z,24.57
2019-04-28T16:43:15.724Z,24.00
2019-04-28T16:45:41.498Z,25.33
2019-04-28T16:48:07.569Z,22.43
2019-04-28T16:50:33.349Z,24.00
2019-04-28T16:52:59.117Z,26.83
2019-04-28T16:55:35.991Z,28.33
2019-04-28T16:58:20.405Z,22.33
2019-04-28T17:00:48.406Z,19.40
2019-04-28T17:03:14.266Z,23.93
2019-04-28T17:05:40.028Z,24.03
2019-04-28T17:08:05.817Z,31.57
2019-04-28T17:10:31.884Z,22.00
2019-04-28T17:12:58.011Z,18.70
2019-04-28T17:15:23.793Z,23.67
2019-04-28T17:17:49.857Z,16.60
2019-04-28T17:20:15.664Z,23.70
2019-04-28T17:22:41.472Z,19.83
2019-04-28T17:25:07.233Z,13.93
2019-04-28T17:27:33.345Z,18.73
2019-04-28T17:29:59.131Z,21.27
2019-04-28T17:32:24.952Z,14.63
2019-04-28T17:34:50.995Z,13.83
